createdAt,value
2022-08-02T00:02:08.505Z,5.80
2022-08-02T00:05:13.596Z,6.60
2022-08-02T00:08:16.298Z,7.07
2022-08-02T00:11:19.015Z,6.57
2022-08-02T00:14:21.636Z,7.40
2022-08-02T00:17:24.424Z,6.40
2022-08-02T00:20:28.358Z,6.73
2022-08-02T00:23:31.067Z,8.13
2022-08-02T00:26:33.756Z,10.20
2022-08-02T00:29:42.699Z,5.97
2022-08-02T00:32:55.759Z,7.07
2022-08-02T00:35:59.694Z,8.73
2022-08-02T00:39:02.300Z,5.60
2022-08-02T00:42:05.283Z,7.33
2022-08-02T00:45:09.037Z,8.77
2022-08-02T00:48:12.871Z,6.37
2022-08-02T00:51:18.067Z,11.77
2022-08-02T00:54:20.849Z,4.70
2022-08-02T00:57:23.498Z,6.50
2022-08-02T01:00:26.107Z,5.67
2022-08-02T01:03:32.923Z,11.87
2022-08-02T01:06:37.151Z,8.37
2022-08-02T01:09:39.733Z,6.80
2022-08-02T01:12:42.380Z,8.07
2022-08-02T01:15:52.317Z,5.80
2022-08-02T01:19:07.828Z,8.23
2022-08-02T01:23:00.601Z,3.47
2022-08-02T01:26:19.037Z,6.87
2022-08-02T01:29:30.279Z,5.03
2022-08-02T01:32:37.950Z,6.83
2022-08-02T01:35:50.723Z,7.47
2022-08-02T01:38:57.111Z,8.37
2022-08-02T01:42:01.570Z,8.73
2022-08-02T01:45:09.040Z,8.47
2022-08-02T01:48:14.033Z,5.27
2022-08-02T01:51:19.506Z,7.97
2022-08-02T01:54:25.939Z,8.37
2022-08-02T01:57:33.595Z,6.53
2022-08-02T02:00:44.610Z,8.13
2022-08-02T02:03:49.589Z,6.77
2022-08-02T02:06:53.620Z,7.23
2022-08-02T02:09:57.817Z,6.63
2022-08-02T02:13:03.914Z,5.60
2022-08-02T02:16:08.542Z,5.53
2022-08-02T02:19:14.103Z,5.93
2022-08-02T02:22:24.066Z,8.83
2022-08-02T02:25:36.123Z,5.40
2022-08-02T02:28:47.724Z,6.07
2022-08-02T02:31:55.773Z,3.27
2022-08-02T02:35:02.527Z,4.20
2022-08-02T02:38:07.535Z,6.77
2022-08-02T02:41:11.506Z,6.83
2022-08-02T02:44:21.509Z,8.10
2022-08-02T02:47:40.302Z,7.47
2022-08-02T02:50:45.346Z,8.80
2022-08-02T02:54:30.158Z,11.00
2022-08-02T02:57:13.037Z,8.70
2022-08-02T03:00:16.162Z,7.47
2022-08-02T03:03:21.462Z,8.53
2022-08-02T03:06:25.521Z,5.30
2022-08-02T03:09:28.146Z,6.40
2022-08-02T03:12:32.502Z,8.07
2022-08-02T03:15:35.894Z,6.23
2022-08-02T03:18:40.877Z,5.40
2022-08-02T03:21:43.909Z,10.63
2022-08-02T03:24:46.549Z,7.27
2022-08-02T03:27:49.139Z,6.20
2022-08-02T03:30:51.842Z,9.30
2022-08-02T03:33:57.174Z,5.93
2022-08-02T03:37:00.809Z,3.93
2022-08-02T03:40:04.531Z,5.47
2022-08-02T03:43:08.102Z,7.43
2022-08-02T03:46:11.275Z,4.00
2022-08-02T03:49:18.453Z,3.93
2022-08-02T03:52:21.567Z,4.63
2022-08-02T03:55:24.404Z,4.67
2022-08-02T03:58:27.413Z,12.00
2022-08-02T04:01:30.007Z,4.73
2022-08-02T04:04:33.974Z,4.17
2022-08-02T04:08:34.574Z,4.70
2022-08-02T04:11:16.790Z,3.90
2022-08-02T04:14:19.842Z,5.63
2022-08-02T04:17:24.930Z,11.97
2022-08-02T04:20:32.502Z,7.77
2022-08-02T04:23:37.460Z,5.53
2022-08-02T04:26:44.053Z,5.83
2022-08-02T04:29:53.545Z,5.43
2022-08-02T04:32:56.623Z,8.57
2022-08-02T04:36:00.688Z,3.30
2022-08-02T04:39:03.473Z,6.03
2022-08-02T04:42:06.926Z,4.77
2022-08-02T04:45:11.836Z,6.40
2022-08-02T04:48:19.374Z,8.93
2022-08-02T04:51:23.306Z,7.53
2022-08-02T04:54:40.877Z,6.60
2022-08-02T04:57:58.694Z,8.00
2022-08-02T05:01:01.556Z,4.93
2022-08-02T05:04:04.684Z,3.40
2022-08-02T05:07:08.611Z,5.90
2022-08-02T05:10:11.597Z,7.73
2022-08-02T05:13:14.188Z,6.00
2022-08-02T05:16:16.843Z,8.23
2022-08-02T05:19:19.418Z,10.33
2022-08-02T05:22:23.358Z,8.80
2022-08-02T05:25:26.914Z,6.82
2022-08-02T05:28:29.491Z,10.80
2022-08-02T05:31:34.471Z,8.43
2022-08-02T05:34:37.033Z,6.73
2022-08-02T05:37:42.200Z,7.40
2022-08-02T05:40:54.383Z,5.37
2022-08-02T05:43:57.914Z,9.40
2022-08-02T05:47:00.521Z,9.50
2022-08-02T05:50:03.197Z,9.60
2022-08-02T05:53:17.114Z,9.03
2022-08-02T05:56:26.047Z,6.90
2022-08-02T05:59:34.418Z,8.63
2022-08-02T06:02:49.158Z,11.40
2022-08-02T06:05:57.216Z,9.53
2022-08-02T06:09:03.928Z,9.10
2022-08-02T06:12:10.737Z,10.80
2022-08-02T06:15:15.177Z,9.60
2022-08-02T06:18:19.059Z,13.20
2022-08-02T06:22:33.089Z,11.90
2022-08-02T06:24:56.507Z,12.27
2022-08-02T06:28:00.796Z,10.43
2022-08-02T06:31:03.886Z,13.50
2022-08-02T06:34:06.494Z,10.43
2022-08-02T06:37:15.630Z,10.37
2022-08-02T06:40:27.931Z,12.87
2022-08-02T06:43:39.327Z,12.07
2022-08-02T06:47:10.032Z,10.90
2022-08-02T06:50:05.891Z,11.63
2022-08-02T06:53:09.088Z,15.20
2022-08-02T06:56:13.018Z,11.20
2022-08-02T06:59:15.623Z,15.37
2022-08-02T07:02:18.314Z,7.70
2022-08-02T07:05:20.966Z,11.47
2022-08-02T07:08:23.818Z,13.03
2022-08-02T07:11:27.787Z,10.77
2022-08-02T07:14:30.367Z,10.63
2022-08-02T07:17:35.926Z,8.47
2022-08-02T07:20:38.516Z,8.23
2022-08-02T07:23:41.067Z,8.83
2022-08-02T07:27:08.602Z,6.27
2022-08-02T07:30:09.050Z,12.30
2022-08-02T07:33:11.761Z,10.80
2022-08-02T07:36:34.403Z,9.97
2022-08-02T07:39:37.574Z,10.50
2022-08-02T07:42:51.871Z,11.43
2022-08-02T07:46:00.830Z,11.60
2022-08-02T07:49:03.809Z,9.20
2022-08-02T07:52:06.425Z,9.17
2022-08-02T07:55:11.563Z,13.13
2022-08-02T07:58:16.386Z,8.47
2022-08-02T08:01:20.305Z,10.40
2022-08-02T08:04:23.395Z,8.47
2022-08-02T08:07:25.963Z,9.90
2022-08-02T08:10:29.093Z,6.20
2022-08-02T08:13:33.042Z,8.27
2022-08-02T08:16:35.885Z,12.17
2022-08-02T08:19:50.870Z,11.60
2022-08-02T08:22:54.899Z,11.63
2022-08-02T08:25:57.489Z,7.43
2022-08-02T08:29:06.412Z,9.50
2022-08-02T08:32:14.125Z,8.50
2022-08-02T08:35:19.187Z,13.50
2022-08-02T08:38:22.074Z,6.27
2022-08-02T08:41:25.647Z,11.97
2022-08-02T08:44:34.745Z,4.60
2022-08-02T08:47:39.834Z,8.00
2022-08-02T08:50:48.583Z,9.13
2022-08-02T08:53:55.375Z,8.73
2022-08-02T08:56:58.629Z,9.50
2022-08-02T09:00:02.878Z,6.20
2022-08-02T09:03:06.966Z,7.97
2022-08-02T09:06:09.601Z,8.57
2022-08-02T09:09:12.225Z,11.97
2022-08-02T09:12:15.962Z,8.73
2022-08-02T09:15:25.885Z,8.23
2022-08-02T09:18:32.384Z,8.13
2022-08-02T09:21:37.476Z,6.47
2022-08-02T09:24:45.681Z,8.07
2022-08-02T09:27:49.380Z,7.43
2022-08-02T09:30:53.842Z,6.60
2022-08-02T09:33:58.441Z,5.90
2022-08-02T09:37:01.135Z,9.85
2022-08-02T09:40:05.601Z,8.73
2022-08-02T09:43:09.924Z,6.63
2022-08-02T09:46:15.874Z,7.43
2022-08-02T09:49:21.173Z,7.22
2022-08-02T09:52:37.398Z,8.57
2022-08-02T09:55:56.220Z,6.40
2022-08-02T09:58:58.918Z,8.05
2022-08-02T10:02:14.812Z,9.48
2022-08-02T10:05:22.033Z,7.32
2022-08-02T10:08:26.478Z,6.28
2022-08-02T10:11:29.740Z,12.30
2022-08-02T10:14:34.718Z,7.78
2022-08-02T10:17:39.103Z,7.78
2022-08-02T10:20:45.503Z,9.00
2022-08-02T10:23:50.614Z,6.25
2022-08-02T10:26:54.710Z,8.85
2022-08-02T10:29:59.915Z,10.80
2022-08-02T10:33:05.356Z,5.20
2022-08-02T10:36:11.011Z,5.97
2022-08-02T10:39:14.179Z,5.03
2022-08-02T10:42:47.882Z,7.47
2022-08-02T10:45:51.954Z,6.18
2022-08-02T10:52:33.075Z,7.70
2022-08-02T10:55:45.823Z,3.80
2022-08-02T10:58:48.460Z,7.35
2022-08-02T11:01:51.800Z,13.65
2022-08-02T11:05:08.853Z,7.35
2022-08-02T11:08:21.959Z,10.65
2022-08-02T11:11:54.298Z,8.82
2022-08-02T11:15:00.236Z,7.28
2022-08-02T11:18:02.802Z,6.60
2022-08-02T11:21:28.281Z,3.60
2022-08-02T11:24:32.479Z,3.60
2022-08-02T11:27:35.118Z,3.25
2022-08-02T11:30:38.888Z,5.95
2022-08-02T11:33:41.607Z,5.10
2022-08-02T11:36:47.330Z,4.78
2022-08-02T11:39:52.563Z,7.72
2022-08-02T11:42:55.197Z,3.63
2022-08-02T11:45:57.946Z,4.68
2022-08-02T11:49:12.679Z,6.10
2022-08-02T11:52:17.047Z,3.42
2022-08-02T11:55:19.665Z,4.97
2022-08-02T11:58:22.470Z,4.47
2022-08-02T12:01:25.066Z,3.30
2022-08-02T12:04:27.682Z,4.85
2022-08-02T12:07:35.345Z,4.20
2022-08-02T12:10:48.372Z,7.97
2022-08-02T12:13:56.781Z,4.18
2022-08-02T12:17:18.021Z,5.60
2022-08-02T12:20:21.226Z,3.33
2022-08-02T12:23:25.683Z,3.75
2022-08-02T12:26:28.428Z,3.78
2022-08-02T12:29:58.446Z,5.32
2022-08-02T12:32:55.265Z,3.45
2022-08-02T12:35:58.075Z,4.47
2022-08-02T12:39:02.611Z,4.75
2022-08-02T12:42:06.439Z,2.40
2022-08-02T12:45:09.792Z,2.85
2022-08-02T12:48:12.506Z,3.55
2022-08-02T12:51:51.130Z,3.22
2022-08-02T12:54:50.209Z,6.88
2022-08-02T12:57:55.150Z,7.07
2022-08-02T13:00:59.745Z,4.13
2022-08-02T13:04:10.221Z,4.90
2022-08-02T13:07:16.029Z,3.97
2022-08-02T13:10:21.344Z,4.75
2022-08-02T13:13:23.958Z,4.47
2022-08-02T13:16:30.685Z,4.88
2022-08-02T13:19:34.206Z,3.85
2022-08-02T13:22:37.369Z,4.47
2022-08-02T13:25:52.917Z,3.72
2022-08-02T13:28:55.635Z,3.45
2022-08-02T13:31:58.258Z,4.28
2022-08-02T13:35:00.841Z,3.40
2022-08-02T13:38:06.450Z,3.78
2022-08-02T13:41:10.469Z,3.95
2022-08-02T13:44:13.042Z,5.53
2022-08-02T13:47:15.864Z,3.85
2022-08-02T13:50:38.440Z,4.32
2022-08-02T13:53:41.106Z,3.35
2022-08-02T13:56:45.082Z,2.85
2022-08-02T13:59:58.295Z,5.13
2022-08-02T14:03:01.858Z,5.85
2022-08-02T14:06:06.649Z,4.95
2022-08-02T14:09:09.280Z,4.22
2022-08-02T14:12:19.771Z,3.40
2022-08-02T14:15:22.597Z,2.35
2022-08-02T14:18:25.282Z,3.97
2022-08-02T14:21:27.857Z,3.22
2022-08-02T14:24:31.635Z,3.35
2022-08-02T14:27:39.329Z,3.75
2022-08-02T14:30:42.662Z,2.63
2022-08-02T14:33:45.294Z,5.80
2022-08-02T14:36:53.314Z,2.88
2022-08-02T14:40:00.058Z,3.13
2022-08-02T14:43:05.286Z,2.78
2022-08-02T14:46:07.894Z,2.80
2022-08-02T14:49:12.175Z,4.80
2022-08-02T14:52:19.533Z,3.40
2022-08-02T14:55:22.221Z,6.45
2022-08-02T14:58:26.144Z,6.18
2022-08-02T15:01:28.798Z,4.07
2022-08-02T15:04:34.354Z,2.85
2022-08-02T15:07:49.557Z,3.45
2022-08-02T15:10:52.440Z,3.67
2022-08-02T15:13:59.137Z,4.38
2022-08-02T15:17:03.548Z,3.50
2022-08-02T15:20:25.516Z,4.20
2022-08-02T15:23:37.086Z,4.40
2022-08-02T15:26:40.291Z,5.10
2022-08-02T15:29:45.869Z,3.28
2022-08-02T15:32:53.365Z,2.08
2022-08-02T15:35:56.414Z,4.63
2022-08-02T15:38:58.982Z,2.97
2022-08-02T15:42:01.636Z,8.07
2022-08-02T15:45:06.250Z,3.17
2022-08-02T15:48:08.972Z,3.05
2022-08-02T15:51:11.622Z,4.13
2022-08-02T15:54:14.222Z,3.10
2022-08-02T15:57:16.772Z,3.53
2022-08-02T16:00:22.269Z,4.25
2022-08-02T16:03:24.875Z,2.83
2022-08-02T16:06:27.555Z,4.40
2022-08-02T16:09:30.693Z,5.40
2022-08-02T16:12:33.615Z,4.22
2022-08-02T16:15:37.534Z,4.38
2022-08-02T16:18:40.156Z,2.50
2022-08-02T16:21:42.807Z,5.20
2022-08-02T16:24:45.717Z,4.40
2022-08-02T16:27:59.431Z,4.18
2022-08-02T16:31:11.817Z,3.38
2022-08-02T16:34:15.788Z,4.43
2022-08-02T16:37:18.406Z,7.40
2022-08-02T16:40:21.167Z,4.30
2022-08-02T16:43:23.830Z,3.55
2022-08-02T16:46:31.531Z,2.95
2022-08-02T16:50:04.600Z,4.18
2022-08-02T16:52:58.878Z,2.95
2022-08-02T16:56:01.794Z,5.45
2022-08-02T16:59:04.527Z,5.25
2022-08-02T17:02:19.561Z,3.30
2022-08-02T17:05:24.359Z,4.85
2022-08-02T17:08:40.385Z,11.55
2022-08-02T17:11:57.842Z,10.07
2022-08-02T17:16:00.979Z,5.22
2022-08-02T17:18:26.948Z,3.25
2022-08-02T17:21:31.757Z,2.70
2022-08-02T17:24:34.383Z,5.50
2022-08-02T17:27:37.577Z,4.85
2022-08-02T17:30:40.241Z,3.22
2022-08-02T17:33:44.168Z,8.20
2022-08-02T17:36:49.846Z,5.03
2022-08-02T17:39:52.573Z,4.25
2022-08-02T17:42:55.174Z,4.25
2022-08-02T17:46:00.533Z,9.82
2022-08-02T17:49:20.763Z,5.38
2022-08-02T17:52:52.356Z,5.63
2022-08-02T17:55:50.886Z,7.00
2022-08-02T17:58:54.088Z,5.38
2022-08-02T18:01:58.487Z,10.93
2022-08-02T18:05:11.827Z,8.35
2022-08-02T18:08:18.366Z,4.50
2022-08-02T18:11:51.762Z,6.30
2022-08-02T18:14:49.199Z,14.98
2022-08-02T18:17:52.162Z,14.07
2022-08-02T18:21:15.606Z,20.13
2022-08-02T18:24:24.065Z,12.38
2022-08-02T18:27:26.840Z,10.63
2022-08-02T18:30:29.442Z,9.07
2022-08-02T18:33:57.863Z,10.57
2022-08-02T18:36:56.267Z,7.95
2022-08-02T18:39:58.886Z,6.15
2022-08-02T18:43:03.440Z,7.25
2022-08-02T18:46:15.731Z,6.47
2022-08-02T18:49:19.685Z,5.40
2022-08-02T18:52:31.549Z,4.78
2022-08-02T18:55:59.524Z,4.53
2022-08-02T18:58:58.409Z,3.42
2022-08-02T19:02:01.121Z,3.30
2022-08-02T19:05:06.891Z,3.83
2022-08-02T19:08:11.593Z,3.20
2022-08-02T19:11:14.242Z,5.75
2022-08-02T19:14:19.131Z,4.57
2022-08-02T19:17:55.197Z,4.90
2022-08-02T19:20:52.571Z,4.65
2022-08-02T19:23:56.528Z,3.30
2022-08-02T19:26:59.179Z,5.68
2022-08-02T19:30:16.879Z,4.40
2022-08-02T19:33:54.331Z,4.28
2022-08-02T19:36:42.066Z,3.53
2022-08-02T19:39:46.216Z,3.17
2022-08-02T19:44:21.516Z,3.92
2022-08-02T19:46:15.543Z,4.35
2022-08-02T19:49:39.151Z,4.38
2022-08-02T19:52:42.086Z,5.05
2022-08-02T19:56:00.158Z,3.78
2022-08-02T19:59:13.175Z,2.17
2022-08-02T20:02:17.299Z,5.53
2022-08-02T20:05:24.105Z,3.40
2022-08-02T20:08:31.924Z,2.70
2022-08-02T20:11:40.230Z,5.05
2022-08-02T20:14:50.970Z,3.55
2022-08-02T20:17:54.050Z,3.90
2022-08-02T20:20:56.703Z,4.47
2022-08-02T20:23:59.644Z,4.38
2022-08-02T20:27:04.491Z,5.45
2022-08-02T20:30:08.263Z,4.05
2022-08-02T20:33:21.651Z,5.45
2022-08-02T20:36:25.171Z,3.78
2022-08-02T20:39:42.841Z,4.50
2022-08-02T20:42:48.632Z,4.00
2022-08-02T20:45:51.551Z,4.00
2022-08-02T20:48:55.937Z,5.55
2022-08-02T20:52:02.151Z,4.40
2022-08-02T20:55:05.006Z,4.85
2022-08-02T20:58:11.665Z,7.60
2022-08-02T21:01:14.657Z,4.30
2022-08-02T21:04:19.368Z,3.47
2022-08-02T21:07:22.081Z,6.10
2022-08-02T21:10:24.729Z,5.05
2022-08-02T21:13:29.172Z,7.72
2022-08-02T21:16:32.040Z,8.98
2022-08-02T21:19:36.544Z,3.60
2022-08-02T21:22:46.847Z,4.10
2022-08-02T21:25:57.406Z,6.20
2022-08-02T21:32:25.254Z,7.80
2022-08-02T21:35:28.080Z,6.75
2022-08-02T21:38:35.865Z,4.32
2022-08-02T21:41:45.929Z,5.57
2022-08-02T21:44:51.216Z,8.15
2022-08-02T21:47:53.833Z,4.25
2022-08-02T21:50:56.414Z,5.47
2022-08-02T21:54:18.197Z,6.65
2022-08-02T21:57:21.675Z,5.32
2022-08-02T22:00:28.841Z,5.72
2022-08-02T22:03:32.558Z,6.88
2022-08-02T22:06:35.590Z,4.63
2022-08-02T22:09:43.628Z,6.57
2022-08-02T22:12:47.830Z,6.38
2022-08-02T22:15:51.782Z,6.63
2022-08-02T22:18:55.178Z,5.10
2022-08-02T22:22:00.380Z,3.65
2022-08-02T22:25:04.191Z,5.57
2022-08-02T22:28:36.768Z,5.00
2022-08-02T22:31:40.961Z,9.20
2022-08-02T22:34:51.718Z,8.40
2022-08-02T22:38:16.932Z,3.70
2022-08-02T22:41:18.462Z,3.90
2022-08-02T22:44:21.091Z,3.10
2022-08-02T22:47:25.031Z,4.53
2022-08-02T22:50:29.539Z,7.07
2022-08-02T22:53:35.859Z,4.10
2022-08-02T22:56:38.849Z,5.60
2022-08-02T22:59:47.281Z,6.77
2022-08-02T23:02:52.864Z,3.47
2022-08-02T23:05:56.034Z,6.53
2022-08-02T23:08:58.669Z,3.95
2022-08-02T23:12:01.239Z,5.07
2022-08-02T23:15:04.387Z,5.55
2022-08-02T23:18:25.811Z,5.82
2022-08-02T23:22:01.360Z,3.83
2022-08-02T23:24:55.894Z,5.07
2022-08-02T23:27:58.651Z,9.85
2022-08-02T23:31:01.545Z,4.90
2022-08-02T23:34:06.009Z,6.17
2022-08-02T23:37:09.500Z,4.33
2022-08-02T23:40:12.397Z,7.05
2022-08-02T23:43:18.737Z,4.35
2022-08-02T23:46:21.333Z,4.05
2022-08-02T23:49:25.540Z,4.53
2022-08-02T23:52:28.249Z,5.90
2022-08-02T23:55:31.634Z,5.30
2022-08-02T23:58:34.267Z,4.00
